sensor_id;sensor_type;location;lat;lon;timestamp;pressure;altitude;pressure_sealevel;temperature;humidity
43814;BME280;29669;55.706;37.656;2023-08-17T05:10:09;100743.84;;;23.37;52.92
43814;BME280;29669;55.706;37.656;2023-08-17T05:21:06;100732.84;;;23.52;52.13
43814;BME280;29669;55.706;37.656;2023-08-17T05:23:33;100739.06;;;23.57;52.29
43814;BME280;29669;55.706;37.656;2023-08-17T05:25:59;100738.50;;;23.55;51.93
43814;BME280;29669;55.706;37.656;2023-08-17T05:28:32;100749.38;;;23.65;51.65
43814;BME280;29669;55.706;37.656;2023-08-17T05:31:51;100744.78;;;23.72;51.76
43814;BME280;29669;55.706;37.656;2023-08-17T05:34:22;100744.56;;;23.74;51.46
43814;BME280;29669;55.706;37.656;2023-08-17T05:36:49;100737.34;;;23.81;51.12
43814;BME280;29669;55.706;37.656;2023-08-17T05:39:18;100740.34;;;23.84;51.13
43814;BME280;29669;55.706;37.656;2023-08-17T05:41:44;100744.97;;;23.89;50.89
43814;BME280;29669;55.706;37.656;2023-08-17T05:44:13;100740.81;;;23.93;50.60
43814;BME280;29669;55.706;37.656;2023-08-17T05:46:41;100744.41;;;23.98;50.63
43814;BME280;29669;55.706;37.656;2023-08-17T05:49:08;100740.88;;;24.04;50.34
43814;BME280;29669;55.706;37.656;2023-08-17T05:51:34;100745.53;;;24.09;50.14
43814;BME280;29669;55.706;37.656;2023-08-17T05:54:02;100736.88;;;24.13;49.91
43814;BME280;29669;55.706;37.656;2023-08-17T05:56:31;100741.75;;;24.16;49.76
43814;BME280;29669;55.706;37.656;2023-08-17T05:58:58;100740.25;;;24.20;49.51
43814;BME280;29669;55.706;37.656;2023-08-17T06:01:26;100737.25;;;24.28;49.16
43814;BME280;29669;55.706;37.656;2023-08-17T06:03:53;100736.81;;;24.32;49.18
43814;BME280;29669;55.706;37.656;2023-08-17T06:06:21;100740.97;;;24.39;48.77
43814;BME280;29669;55.706;37.656;2023-08-17T06:08:48;100736.81;;;24.43;48.65
43814;BME280;29669;55.706;37.656;2023-08-17T06:11:16;100741.31;;;24.43;48.72
43814;BME280;29669;55.706;37.656;2023-08-17T06:13:43;100736.00;;;24.43;48.78
43814;BME280;29669;55.706;37.656;2023-08-17T06:16:11;100732.88;;;24.46;48.33
43814;BME280;29669;55.706;37.656;2023-08-17T06:18:38;100737.41;;;24.45;48.10
43814;BME280;29669;55.706;37.656;2023-08-17T06:21:06;100735.69;;;24.51;47.94
43814;BME280;29669;55.706;37.656;2023-08-17T06:23:34;100733.94;;;24.56;47.77
43814;BME280;29669;55.706;37.656;2023-08-17T06:26:03;100726.31;;;24.60;47.54
43814;BME280;29669;55.706;37.656;2023-08-17T06:28:30;100727.59;;;24.69;47.44
43814;BME280;29669;55.706;37.656;2023-08-17T06:31:01;100727.72;;;24.74;47.20
43814;BME280;29669;55.706;37.656;2023-08-17T06:33:29;100732.00;;;24.75;47.26
43814;BME280;29669;55.706;37.656;2023-08-17T06:36:00;100735.25;;;24.77;46.98
43814;BME280;29669;55.706;37.656;2023-08-17T06:38:27;100726.13;;;24.73;47.07
43814;BME280;29669;55.706;37.656;2023-08-17T06:40:55;100727.28;;;24.77;46.86
43814;BME280;29669;55.706;37.656;2023-08-17T06:43:23;100736.97;;;24.83;46.91
43814;BME280;29669;55.706;37.656;2023-08-17T06:46:26;100725.53;;;24.94;46.84
43814;BME280;29669;55.706;37.656;2023-08-17T06:49:36;100728.75;;;25.07;46.43
43814;BME280;29669;55.706;37.656;2023-08-17T06:52:05;100727.22;;;25.11;46.21
43814;BME280;29669;55.706;37.656;2023-08-17T06:54:42;100731.34;;;25.19;46.10
43814;BME280;29669;55.706;37.656;2023-08-17T06:57:25;100738.16;;;25.27;46.05
43814;BME280;29669;55.706;37.656;2023-08-17T06:59:54;100731.56;;;25.29;45.69
43814;BME280;29669;55.706;37.656;2023-08-17T07:02:22;100723.50;;;25.24;45.43
43814;BME280;29669;55.706;37.656;2023-08-17T07:04:50;100729.16;;;25.28;45.40
43814;BME280;29669;55.706;37.656;2023-08-17T07:07:20;100725.09;;;25.25;45.35
43814;BME280;29669;55.706;37.656;2023-08-17T07:09:59;100729.25;;;25.33;45.21
43814;BME280;29669;55.706;37.656;2023-08-17T07:12:28;100734.88;;;25.36;44.76
43814;BME280;29669;55.706;37.656;2023-08-17T07:14:56;100722.09;;;25.33;44.64
43814;BME280;29669;55.706;37.656;2023-08-17T07:17:24;100726.34;;;25.34;44.65
43814;BME280;29669;55.706;37.656;2023-08-17T07:19:53;100725.69;;;25.39;44.41
43814;BME280;29669;55.706;37.656;2023-08-17T07:22:40;100726.00;;;25.42;43.96
43814;BME280;29669;55.706;37.656;2023-08-17T07:25:08;100734.31;;;25.46;43.90
43814;BME280;29669;55.706;37.656;2023-08-17T07:27:36;100737.22;;;25.44;43.88
43814;BME280;29669;55.706;37.656;2023-08-17T07:30:07;100727.34;;;25.56;44.06
43814;BME280;29669;55.706;37.656;2023-08-17T07:32:35;100722.69;;;25.63;43.80
43814;BME280;29669;55.706;37.656;2023-08-17T07:35:08;100723.03;;;25.67;43.42
43814;BME280;29669;55.706;37.656;2023-08-17T07:37:39;100724.97;;;25.71;43.11
43814;BME280;29669;55.706;37.656;2023-08-17T07:40:07;100718.28;;;25.69;42.96
43814;BME280;29669;55.706;37.656;2023-08-17T07:42:35;100728.78;;;25.75;42.91
43814;BME280;29669;55.706;37.656;2023-08-17T07:45:04;100718.47;;;25.79;42.86
43814;BME280;29669;55.706;37.656;2023-08-17T07:47:36;100719.84;;;25.81;42.63
43814;BME280;29669;55.706;37.656;2023-08-17T07:50:05;100730.25;;;25.83;42.86
43814;BME280;29669;55.706;37.656;2023-08-17T07:52:33;100719.34;;;25.84;42.73
43814;BME280;29669;55.706;37.656;2023-08-17T07:55:00;100717.09;;;25.93;42.42
43814;BME280;29669;55.706;37.656;2023-08-17T07:57:30;100717.78;;;26.00;42.89
43814;BME280;29669;55.706;37.656;2023-08-17T07:59:57;100718.09;;;26.03;42.52
43814;BME280;29669;55.706;37.656;2023-08-17T08:02:26;100718.91;;;26.04;42.21
43814;BME280;29669;55.706;37.656;2023-08-17T08:04:53;100720.44;;;26.00;41.53
43814;BME280;29669;55.706;37.656;2023-08-17T08:07:21;100729.19;;;26.00;41.76
43814;BME280;29669;55.706;37.656;2023-08-17T08:09:49;100713.81;;;26.02;41.46
43814;BME280;29669;55.706;37.656;2023-08-17T08:12:17;100715.06;;;26.12;41.62
43814;BME280;29669;55.706;37.656;2023-08-17T08:14:44;100711.34;;;26.13;41.33
43814;BME280;29669;55.706;37.656;2023-08-17T08:17:12;100718.31;;;26.14;41.56
43814;BME280;29669;55.706;37.656;2023-08-17T08:19:40;100717.75;;;26.12;41.37
43814;BME280;29669;55.706;37.656;2023-08-17T08:22:07;100725.53;;;26.18;41.43
43814;BME280;29669;55.706;37.656;2023-08-17T08:24:35;100704.25;;;26.18;41.50
43814;BME280;29669;55.706;37.656;2023-08-17T08:27:06;100714.59;;;26.15;41.40
43814;BME280;29669;55.706;37.656;2023-08-17T08:29:33;100709.59;;;26.18;41.12
43814;BME280;29669;55.706;37.656;2023-08-17T08:32:01;100702.00;;;26.27;41.40
43814;BME280;29669;55.706;37.656;2023-08-17T08:34:30;100703.22;;;26.36;41.02
43814;BME280;29669;55.706;37.656;2023-08-17T08:36:58;100705.22;;;26.45;40.91
43814;BME280;29669;55.706;37.656;2023-08-17T08:39:26;100713.34;;;26.55;41.21
43814;BME280;29669;55.706;37.656;2023-08-17T08:41:54;100698.03;;;26.62;40.90
43814;BME280;29669;55.706;37.656;2023-08-17T08:44:22;100703.66;;;26.66;40.66
43814;BME280;29669;55.706;37.656;2023-08-17T08:46:53;100698.34;;;26.66;40.77
43814;BME280;29669;55.706;37.656;2023-08-17T08:49:23;100703.34;;;26.62;40.44
43814;BME280;29669;55.706;37.656;2023-08-17T08:51:51;100705.44;;;26.60;40.92
43814;BME280;29669;55.706;37.656;2023-08-17T08:54:21;100703.91;;;26.64;40.75
43814;BME280;29669;55.706;37.656;2023-08-17T08:56:58;100690.09;;;26.67;40.72
43814;BME280;29669;55.706;37.656;2023-08-17T08:59:29;100694.47;;;26.73;40.58
43814;BME280;29669;55.706;37.656;2023-08-17T09:01:58;100701.66;;;26.73;40.61
43814;BME280;29669;55.706;37.656;2023-08-17T09:04:27;100694.72;;;26.72;40.63
43814;BME280;29669;55.706;37.656;2023-08-17T09:06:56;100698.72;;;26.74;40.39
43814;BME280;29669;55.706;37.656;2023-08-17T09:09:24;100691.56;;;26.75;40.35
43814;BME280;29669;55.706;37.656;2023-08-17T09:11:56;100687.59;;;26.77;40.41
43814;BME280;29669;55.706;37.656;2023-08-17T09:14:24;100682.03;;;26.79;40.08
43814;BME280;29669;55.706;37.656;2023-08-17T09:16:52;100688.78;;;26.86;40.35
43814;BME280;29669;55.706;37.656;2023-08-17T09:19:19;100689.97;;;26.95;40.04
43814;BME280;29669;55.706;37.656;2023-08-17T09:21:47;100681.84;;;27.07;39.93
43814;BME280;29669;55.706;37.656;2023-08-17T09:24:17;100685.69;;;27.16;40.00
43814;BME280;29669;55.706;37.656;2023-08-17T09:26:45;100682.31;;;27.26;39.72
43814;BME280;29669;55.706;37.656;2023-08-17T09:29:20;100684.25;;;27.30;39.50
43814;BME280;29669;55.706;37.656;2023-08-17T09:31:48;100677.41;;;27.34;39.48
43814;BME280;29669;55.706;37.656;2023-08-17T09:34:16;100682.22;;;27.37;39.45
43814;BME280;29669;55.706;37.656;2023-08-17T09:36:46;100671.28;;;27.39;39.13
43814;BME280;29669;55.706;37.656;2023-08-17T09:39:17;100667.06;;;27.43;39.05
43814;BME280;29669;55.706;37.656;2023-08-17T09:41:45;100677.56;;;27.49;39.22
43814;BME280;29669;55.706;37.656;2023-08-17T09:44:13;100665.81;;;27.50;38.81
43814;BME280;29669;55.706;37.656;2023-08-17T09:46:44;100671.78;;;27.57;38.75
43814;BME280;29669;55.706;37.656;2023-08-17T09:49:12;100673.88;;;27.55;38.73
43814;BME280;29669;55.706;37.656;2023-08-17T09:51:43;100676.59;;;27.60;38.68
43814;BME280;29669;55.706;37.656;2023-08-17T09:54:20;100681.47;;;27.68;38.40
43814;BME280;29669;55.706;37.656;2023-08-17T09:56:53;100677.19;;;27.67;38.50
43814;BME280;29669;55.706;37.656;2023-08-17T09:59:20;100677.19;;;27.67;38.21
43814;BME280;29669;55.706;37.656;2023-08-17T10:01:49;100671.84;;;27.67;38.31
43814;BME280;29669;55.706;37.656;2023-08-17T10:04:23;100678.03;;;27.73;37.97
43814;BME280;29669;55.706;37.656;2023-08-17T10:07:00;100677.81;;;27.74;38.21
43814;BME280;29669;55.706;37.656;2023-08-17T10:09:33;100676.19;;;27.73;38.12
43814;BME280;29669;55.706;37.656;2023-08-17T10:12:09;100669.84;;;27.79;37.88
43814;BME280;29669;55.706;37.656;2023-08-17T10:15:02;100675.72;;;27.81;37.50
43814;BME280;29669;55.706;37.656;2023-08-17T10:17:39;100673.63;;;27.83;37.60
43814;BME280;29669;55.706;37.656;2023-08-17T10:20:10;100674.72;;;27.87;37.45
43814;BME280;29669;55.706;37.656;2023-08-17T10:23:00;100668.59;;;27.92;37.68
43814;BME280;29669;55.706;37.656;2023-08-17T10:25:31;100663.25;;;27.92;37.38
43814;BME280;29669;55.706;37.656;2023-08-17T10:27:59;100665.38;;;27.90;37.40
43814;BME280;29669;55.706;37.656;2023-08-17T10:30:31;100668.59;;;27.92;37.39
43814;BME280;29669;55.706;37.656;2023-08-17T10:32:59;100668.84;;;27.90;37.23
43814;BME280;29669;55.706;37.656;2023-08-17T10:35:28;100667.78;;;27.91;37.15
43814;BME280;29669;55.706;37.656;2023-08-17T10:37:57;100664.28;;;27.86;37.07
43814;BME280;29669;55.706;37.656;2023-08-17T10:40:34;100667.00;;;27.91;37.05
43814;BME280;29669;55.706;37.656;2023-08-17T10:43:02;100654.53;;;27.97;37.01
43814;BME280;29669;55.706;37.656;2023-08-17T10:45:31;100659.91;;;28.02;36.55
43814;BME280;29669;55.706;37.656;2023-08-17T10:50:37;100659.19;;;28.11;36.91
43814;BME280;29669;55.706;37.656;2023-08-17T10:53:13;100664.03;;;28.14;36.76
43814;BME280;29669;55.706;37.656;2023-08-17T10:55:46;100659.44;;;28.10;36.51
43814;BME280;29669;55.706;37.656;2023-08-17T10:58:19;100651.69;;;28.08;36.33
43814;BME280;29669;55.706;37.656;2023-08-17T11:00:47;100654.38;;;28.13;36.36
43814;BME280;29669;55.706;37.656;2023-08-17T11:03:19;100653.88;;;28.16;35.85
43814;BME280;29669;55.706;37.656;2023-08-17T11:05:53;100644.00;;;28.17;36.17
43814;BME280;29669;55.706;37.656;2023-08-17T11:08:23;100648.28;;;28.18;36.22
43814;BME280;29669;55.706;37.656;2023-08-17T11:11:04;100643.78;;;28.23;36.01
43814;BME280;29669;55.706;37.656;2023-08-17T11:13:34;100633.88;;;28.24;35.58
43814;BME280;29669;55.706;37.656;2023-08-17T11:16:03;100626.13;;;28.22;35.94
43814;BME280;29669;55.706;37.656;2023-08-17T11:18:35;100634.75;;;28.29;35.89
43814;BME280;29669;55.706;37.656;2023-08-17T11:21:06;100631.84;;;28.36;35.49
43814;BME280;29669;55.706;37.656;2023-08-17T11:23:35;100632.09;;;28.29;35.43
43814;BME280;29669;55.706;37.656;2023-08-17T11:26:04;100630.72;;;28.27;35.71
43814;BME280;29669;55.706;37.656;2023-08-17T11:28:33;100633.69;;;28.30;35.64
43814;BME280;29669;55.706;37.656;2023-08-17T11:31:11;100618.19;;;28.32;35.58
43814;BME280;29669;55.706;37.656;2023-08-17T11:33:39;100624.66;;;28.41;35.52
43814;BME280;29669;55.706;37.656;2023-08-17T11:36:09;100618.56;;;28.51;35.30
43814;BME280;29669;55.706;37.656;2023-08-17T11:38:40;100615.91;;;28.51;34.88
43814;BME280;29669;55.706;37.656;2023-08-17T11:41:09;100612.75;;;28.54;34.90
43814;BME280;29669;55.706;37.656;2023-08-17T11:43:44;100610.63;;;28.61;34.87
43814;BME280;29669;55.706;37.656;2023-08-17T11:46:13;100603.97;;;28.63;34.52
43814;BME280;29669;55.706;37.656;2023-08-17T11:48:41;100601.56;;;28.62;34.75
43814;BME280;29669;55.706;37.656;2023-08-17T11:51:11;100601.81;;;28.60;34.85
43814;BME280;29669;55.706;37.656;2023-08-17T11:53:42;100603.19;;;28.68;34.63
43814;BME280;29669;55.706;37.656;2023-08-17T11:56:16;100597.34;;;28.76;34.60
43814;BME280;29669;55.706;37.656;2023-08-17T11:58:46;100597.34;;;28.81;34.22
43814;BME280;29669;55.706;37.656;2023-08-17T12:01:25;100597.34;;;28.81;34.39
43814;BME280;29669;55.706;37.656;2023-08-17T12:03:52;100601.09;;;28.80;34.16
43814;BME280;29669;55.706;37.656;2023-08-17T12:06:20;100592.84;;;28.92;34.11
43814;BME280;29669;55.706;37.656;2023-08-17T12:08:48;100594.81;;;29.16;33.82
43814;BME280;29669;55.706;37.656;2023-08-17T12:11:17;100582.28;;;29.42;33.68
43814;BME280;29669;55.706;37.656;2023-08-17T12:13:51;100586.28;;;29.64;33.67
43814;BME280;29669;55.706;37.656;2023-08-17T12:16:20;100590.59;;;29.81;33.36
43814;BME280;29669;55.706;37.656;2023-08-17T12:18:50;100585.47;;;29.94;33.15
43814;BME280;29669;55.706;37.656;2023-08-17T12:21:22;100587.34;;;30.04;33.01
43814;BME280;29669;55.706;37.656;2023-08-17T12:23:50;100579.59;;;30.07;32.75
43814;BME280;29669;55.706;37.656;2023-08-17T12:26:19;100579.88;;;30.01;32.49
43814;BME280;29669;55.706;37.656;2023-08-17T12:28:48;100573.47;;;29.92;32.64
43814;BME280;29669;55.706;37.656;2023-08-17T12:31:22;100576.69;;;29.79;32.46
43814;BME280;29669;55.706;37.656;2023-08-17T12:33:52;100572.94;;;29.80;32.39
43814;BME280;29669;55.706;37.656;2023-08-17T12:36:19;100569.19;;;29.81;32.35
43814;BME280;29669;55.706;37.656;2023-08-17T12:38:49;100579.09;;;29.90;31.98
43814;BME280;29669;55.706;37.656;2023-08-17T12:41:16;100569.41;;;29.94;31.88
43814;BME280;29669;55.706;37.656;2023-08-17T12:43:45;100564.56;;;30.11;31.48
43814;BME280;29669;55.706;37.656;2023-08-17T12:46:12;100558.44;;;30.80;31.01
43814;BME280;29669;55.706;37.656;2023-08-17T12:48:40;100558.75;;;32.60;28.45
43814;BME280;29669;55.706;37.656;2023-08-17T12:51:08;100561.91;;;34.33;26.23
43814;BME280;29669;55.706;37.656;2023-08-17T12:53:35;100561.75;;;35.37;24.76
43814;BME280;29669;55.706;37.656;2023-08-17T12:56:03;100560.97;;;36.20;23.83
43814;BME280;29669;55.706;37.656;2023-08-17T12:58:31;100559.22;;;36.71;22.72
43814;BME280;29669;55.706;37.656;2023-08-17T13:00:58;100552.88;;;37.02;22.10
43814;BME280;29669;55.706;37.656;2023-08-17T13:03:25;100550.59;;;37.55;21.76
43814;BME280;29669;55.706;37.656;2023-08-17T13:05:53;100550.69;;;37.84;21.22
43814;BME280;29669;55.706;37.656;2023-08-17T13:08:21;100553.63;;;38.37;20.89
43814;BME280;29669;55.706;37.656;2023-08-17T13:10:49;100551.50;;;38.93;20.60
43814;BME280;29669;55.706;37.656;2023-08-17T13:13:16;100555.81;;;39.14;20.06
43814;BME280;29669;55.706;37.656;2023-08-17T13:15:43;100551.97;;;39.48;20.16
43814;BME280;29669;55.706;37.656;2023-08-17T13:18:11;100548.34;;;40.01;19.57
43814;BME280;29669;55.706;37.656;2023-08-17T13:20:39;100538.34;;;40.53;19.41
43814;BME280;29669;55.706;37.656;2023-08-17T13:23:07;100539.78;;;40.63;19.36
43814;BME280;29669;55.706;37.656;2023-08-17T13:25:35;100544.72;;;40.85;18.89
43814;BME280;29669;55.706;37.656;2023-08-17T13:28:03;100545.53;;;40.73;18.96
43814;BME280;29669;55.706;37.656;2023-08-17T13:30:30;100544.06;;;40.64;18.81
43814;BME280;29669;55.706;37.656;2023-08-17T13:32:58;100552.81;;;40.69;18.55
43814;BME280;29669;55.706;37.656;2023-08-17T13:35:25;100547.25;;;40.66;18.87
43814;BME280;29669;55.706;37.656;2023-08-17T13:37:53;100538.88;;;40.59;18.85
43814;BME280;29669;55.706;37.656;2023-08-17T13:40:25;100539.84;;;40.39;18.99
43814;BME280;29669;55.706;37.656;2023-08-17T13:42:52;100540.50;;;40.99;18.34
43814;BME280;29669;55.706;37.656;2023-08-17T13:45:20;100541.25;;;41.86;17.84
43814;BME280;29669;55.706;37.656;2023-08-17T13:47:47;100539.84;;;42.58;17.54
43814;BME280;29669;55.706;37.656;2023-08-17T13:50:15;100536.19;;;42.70;16.77
43814;BME280;29669;55.706;37.656;2023-08-17T13:52:43;100540.28;;;42.60;17.10
43814;BME280;29669;55.706;37.656;2023-08-17T13:55:10;100541.47;;;42.63;17.02
43814;BME280;29669;55.706;37.656;2023-08-17T13:57:38;100541.78;;;42.77;17.10
43814;BME280;29669;55.706;37.656;2023-08-17T14:00:06;100542.09;;;42.91;16.86
43814;BME280;29669;55.706;37.656;2023-08-17T14:02:34;100532.75;;;42.92;16.64
43814;BME280;29669;55.706;37.656;2023-08-17T14:05:03;100530.59;;;43.20;16.29
43814;BME280;29669;55.706;37.656;2023-08-17T14:07:30;100525.84;;;42.98;16.61
43814;BME280;29669;55.706;37.656;2023-08-17T14:09:58;100536.16;;;43.08;16.72
43814;BME280;29669;55.706;37.656;2023-08-17T14:12:36;100529.13;;;43.26;16.82
43814;BME280;29669;55.706;37.656;2023-08-17T14:15:04;100529.41;;;43.21;16.48
43814;BME280;29669;55.706;37.656;2023-08-17T14:17:33;100530.59;;;43.20;16.22
43814;BME280;29669;55.706;37.656;2023-08-17T14:20:00;100523.38;;;42.93;16.41
43814;BME280;29669;55.706;37.656;2023-08-17T14:22:30;100524.13;;;42.90;16.79
43814;BME280;29669;55.706;37.656;2023-08-17T14:24:58;100533.16;;;42.75;16.54
43814;BME280;29669;55.706;37.656;2023-08-17T14:27:27;100528.69;;;42.67;16.85
43814;BME280;29669;55.706;37.656;2023-08-17T14:29:54;100523.38;;;42.93;16.48
43814;BME280;29669;55.706;37.656;2023-08-17T14:32:22;100529.16;;;43.49;16.01
43814;BME280;29669;55.706;37.656;2023-08-17T14:34:50;100521.66;;;43.68;15.89
43814;BME280;29669;55.706;37.656;2023-08-17T14:37:18;100518.13;;;43.91;15.56
43814;BME280;29669;55.706;37.656;2023-08-17T14:39:51;100518.47;;;44.12;15.46
43814;BME280;29669;55.706;37.656;2023-08-17T14:42:19;100515.97;;;44.29;15.57
43814;BME280;29669;55.706;37.656;2023-08-17T14:44:46;100517.72;;;44.41;15.21
43814;BME280;29669;55.706;37.656;2023-08-17T14:47:13;100505.66;;;44.45;15.63
43814;BME280;29669;55.706;37.656;2023-08-17T14:49:46;100513.72;;;44.64;15.43
43814;BME280;29669;55.706;37.656;2023-08-17T14:52:14;100520.25;;;44.86;15.24
43814;BME280;29669;55.706;37.656;2023-08-17T14:54:41;100524.69;;;44.98;14.85
43814;BME280;29669;55.706;37.656;2023-08-17T14:57:09;100522.75;;;44.98;14.99
43814;BME280;29669;55.706;37.656;2023-08-17T14:59:37;100528.78;;;44.78;15.05
43814;BME280;29669;55.706;37.656;2023-08-17T15:02:04;100521.63;;;44.73;15.21
43814;BME280;29669;55.706;37.656;2023-08-17T15:04:32;100518.38;;;44.60;14.85
43814;BME280;29669;55.706;37.656;2023-08-17T15:07:00;100532.22;;;44.41;15.49
43814;BME280;29669;55.706;37.656;2023-08-17T15:09:27;100536.50;;;44.16;15.34
43814;BME280;29669;55.706;37.656;2023-08-17T15:11:55;100531.41;;;44.15;15.29
43814;BME280;29669;55.706;37.656;2023-08-17T15:14:22;100544.84;;;44.23;15.43
43814;BME280;29669;55.706;37.656;2023-08-17T15:16:50;100541.81;;;44.32;15.66
43814;BME280;29669;55.706;37.656;2023-08-17T15:19:17;100549.09;;;44.21;15.54
43814;BME280;29669;55.706;37.656;2023-08-17T15:22:05;100553.84;;;43.75;15.75
43814;BME280;29669;55.706;37.656;2023-08-17T15:24:32;100553.97;;;43.40;16.02
43814;BME280;29669;55.706;37.656;2023-08-17T15:27:00;100550.75;;;43.16;16.02
43814;BME280;29669;55.706;37.656;2023-08-17T15:29:27;100548.22;;;43.23;16.15
43814;BME280;29669;55.706;37.656;2023-08-17T15:31:55;100550.97;;;43.45;16.17
43814;BME280;29669;55.706;37.656;2023-08-17T15:34:22;100557.88;;;43.39;16.36
43814;BME280;29669;55.706;37.656;2023-08-17T15:36:49;100561.94;;;43.26;16.54
43814;BME280;29669;55.706;37.656;2023-08-17T15:39:17;100560.44;;;43.10;16.54
43814;BME280;29669;55.706;37.656;2023-08-17T15:41:45;100555.47;;;42.96;16.68
43814;BME280;29669;55.706;37.656;2023-08-17T15:44:12;100551.28;;;42.64;16.62
43814;BME280;29669;55.706;37.656;2023-08-17T15:46:40;100556.91;;;42.21;17.06
43814;BME280;29669;55.706;37.656;2023-08-17T15:49:08;100550.06;;;42.11;17.10
43814;BME280;29669;55.706;37.656;2023-08-17T15:51:35;100556.66;;;42.10;17.06
43814;BME280;29669;55.706;37.656;2023-08-17T15:54:03;100546.28;;;41.84;17.31
43814;BME280;29669;55.706;37.656;2023-08-17T15:56:33;100540.25;;;41.48;17.51
43814;BME280;29669;55.706;37.656;2023-08-17T15:59:01;100538.41;;;41.08;18.24
43814;BME280;29669;55.706;37.656;2023-08-17T16:01:28;100546.94;;;40.67;18.14
43814;BME280;29669;55.706;37.656;2023-08-17T16:03:56;100545.91;;;39.63;19.20
43814;BME280;29669;55.706;37.656;2023-08-17T16:06:24;100543.50;;;37.88;20.38
43814;BME280;29669;55.706;37.656;2023-08-17T16:08:51;100542.78;;;36.03;22.35
43814;BME280;29669;55.706;37.656;2023-08-17T16:11:19;100548.41;;;34.60;23.96
43814;BME280;29669;55.706;37.656;2023-08-17T16:13:46;100546.13;;;33.54;25.15
43814;BME280;29669;55.706;37.656;2023-08-17T16:16:14;100543.06;;;32.67;26.31
43814;BME280;29669;55.706;37.656;2023-08-17T16:18:41;100551.91;;;32.02;27.42
43814;BME280;29669;55.706;37.656;2023-08-17T16:21:09;100555.31;;;31.50;28.07
43814;BME280;29669;55.706;37.656;2023-08-17T16:23:39;100548.13;;;31.07;28.57
43814;BME280;29669;55.706;37.656;2023-08-17T16:26:07;100562.25;;;30.69;29.14
43814;BME280;29669;55.706;37.656;2023-08-17T16:28:34;100559.44;;;30.35;29.51
43814;BME280;29669;55.706;37.656;2023-08-17T16:31:01;100564.31;;;30.08;30.17
43814;BME280;29669;55.706;37.656;2023-08-17T16:33:32;100572.94;;;29.80;30.57
43814;BME280;29669;55.706;37.656;2023-08-17T16:35:59;100574.00;;;29.53;30.94
43814;BME280;29669;55.706;37.656;2023-08-17T16:38:27;100577.19;;;29.30;31.41
43814;BME280;29669;55.706;37.656;2023-08-17T16:40:55;100579.81;;;29.10;31.85
43814;BME280;29669;55.706;37.656;2023-08-17T16:43:22;100577.59;;;28.92;32.29
43814;BME280;29669;55.706;37.656;2023-08-17T16:45:50;100581.03;;;28.72;32.70
43814;BME280;29669;55.706;37.656;2023-08-17T16:48:17;100587.09;;;28.58;32.98
43814;BME280;29669;55.706;37.656;2023-08-17T16:50:50;100588.34;;;28.40;33.33
43814;BME280;29669;55.706;37.656;2023-08-17T16:53:18;100587.72;;;28.28;33.79
43814;BME280;29669;55.706;37.656;2023-08-17T16:55:45;100585.78;;;28.14;33.91
43814;BME280;29669;55.706;37.656;2023-08-17T16:58:21;100597.69;;;28.01;34.01
43814;BME280;29669;55.706;37.656;2023-08-17T17:00:49;100597.34;;;27.87;34.22
43814;BME280;29669;55.706;37.656;2023-08-17T17:03:16;100605.78;;;27.74;34.90
43814;BME280;29669;55.706;37.656;2023-08-17T17:05:44;100604.59;;;27.65;35.14
43814;BME280;29669;55.706;37.656;2023-08-17T17:08:11;100597.31;;;27.56;35.44
43814;BME280;29669;55.706;37.656;2023-08-17T17:10:39;100598.56;;;27.43;35.43
43814;BME280;29669;55.706;37.656;2023-08-17T17:13:06;100599.25;;;27.34;35.90
43814;BME280;29669;55.706;37.656;2023-08-17T17:15:34;100599.38;;;27.22;35.90
43814;BME280;29669;55.706;37.656;2023-08-17T17:18:01;100596.38;;;27.14;36.29
43814;BME280;29669;55.706;37.656;2023-08-17T17:20:29;100603.19;;;27.05;36.26
43814;BME280;29669;55.706;37.656;2023-08-17T17:22:58;100614.06;;;26.98;36.66
43814;BME280;29669;55.706;37.656;2023-08-17T17:25:25;100607.56;;;26.89;36.79
43814;BME280;29669;55.706;37.656;2023-08-17T17:27:53;100604.75;;;26.79;36.74
43814;BME280;29669;55.706;37.656;2023-08-17T17:30:20;100611.34;;;26.71;37.02
43814;BME280;29669;55.706;37.656;2023-08-17T17:32:48;100605.59;;;26.63;37.42
43814;BME280;29669;55.706;37.656;2023-08-17T17:35:15;100603.38;;;26.55;37.26
43814;BME280;29669;55.706;37.656;2023-08-17T17:37:43;100594.75;;;26.48;37.75
43814;BME280;29669;55.706;37.656;2023-08-17T17:40:10;100597.84;;;26.40;37.81
43814;BME280;29669;55.706;37.656;2023-08-17T17:42:38;100605.19;;;26.33;38.10
43814;BME280;29669;55.706;37.656;2023-08-17T17:45:06;100600.63;;;26.28;38.26
43814;BME280;29669;55.706;37.656;2023-08-17T17:47:33;100605.06;;;26.23;38.21
43814;BME280;29669;55.706;37.656;2023-08-17T17:50:04;100601.22;;;26.14;38.60
43814;BME280;29669;55.706;37.656;2023-08-17T17:52:32;100599.78;;;26.06;38.77
43814;BME280;29669;55.706;37.656;2023-08-17T17:54:59;100596.75;;;26.02;38.85
43814;BME280;29669;55.706;37.656;2023-08-17T17:57:27;100598.50;;;25.97;38.96
43814;BME280;29669;55.706;37.656;2023-08-17T17:59:55;100600.03;;;25.93;39.09
43814;BME280;29669;55.706;37.656;2023-08-17T18:02:24;100602.38;;;25.89;39.64
43814;BME280;29669;55.706;37.656;2023-08-17T18:04:52;100607.31;;;25.81;39.41
43814;BME280;29669;55.706;37.656;2023-08-17T18:07:20;100610.13;;;25.74;39.89
43814;BME280;29669;55.706;37.656;2023-08-17T18:09:47;100599.88;;;25.66;40.06
43814;BME280;29669;55.706;37.656;2023-08-17T18:12:15;100597.97;;;25.62;40.18